createdAt,value
2023-04-19T00:01:01.129Z,7.80
2023-04-19T00:03:29.896Z,9.10
2023-04-19T00:05:59.347Z,7.70
2023-04-19T00:08:25.875Z,9.90
2023-04-19T00:10:52.385Z,8.00
2023-04-19T00:13:18.963Z,7.70
2023-04-19T00:15:45.570Z,7.90
2023-04-19T00:18:12.069Z,8.50
2023-04-19T00:20:38.817Z,8.70
2023-04-19T00:23:05.292Z,7.10
2023-04-19T00:25:33.937Z,7.20
2023-04-19T00:28:00.340Z,7.40
2023-04-19T00:30:26.908Z,7.60
2023-04-19T00:32:53.390Z,8.00
2023-04-19T00:35:19.882Z,8.40
2023-04-19T00:37:46.484Z,7.70
2023-04-19T00:40:12.909Z,8.50
2023-04-19T00:42:39.251Z,7.90
2023-04-19T00:45:06.442Z,9.20
2023-04-19T00:47:33.320Z,8.30
2023-04-19T00:49:59.892Z,8.00
2023-04-19T00:52:26.881Z,8.40
2023-04-19T00:54:53.312Z,7.90
2023-04-19T00:57:21.165Z,8.10
2023-04-19T00:59:47.707Z,7.60
2023-04-19T01:02:14.312Z,8.10
2023-04-19T01:04:40.979Z,8.10
2023-04-19T01:07:08.424Z,8.00
2023-04-19T01:09:34.869Z,8.50
2023-04-19T01:12:03.820Z,8.00
2023-04-19T01:14:30.236Z,8.70
2023-04-19T01:16:57.327Z,9.10
2023-04-19T01:19:23.598Z,9.00
2023-04-19T01:21:52.059Z,8.40
2023-04-19T01:24:18.433Z,9.30
2023-04-19T01:26:44.958Z,8.90
2023-04-19T01:29:11.449Z,9.40
2023-04-19T01:31:37.988Z,9.00
2023-04-19T01:34:04.953Z,9.40
2023-04-19T01:36:31.493Z,8.90
2023-04-19T01:38:58.032Z,9.30
2023-04-19T01:41:26.610Z,9.50
2023-04-19T01:43:53.086Z,9.60
2023-04-19T01:46:19.671Z,9.70
2023-04-19T01:48:45.968Z,9.90
2023-04-19T01:51:12.347Z,9.90
2023-04-19T01:53:38.638Z,10.40
2023-04-19T01:56:05.292Z,10.10
2023-04-19T01:58:31.632Z,11.00
2023-04-19T02:00:58.222Z,10.80
2023-04-19T02:03:24.658Z,10.60
2023-04-19T02:05:51.077Z,11.70
2023-04-19T02:08:17.547Z,11.00
2023-04-19T02:10:43.848Z,11.30
2023-04-19T02:13:10.417Z,11.50
2023-04-19T02:15:36.815Z,11.90
2023-04-19T02:18:06.213Z,11.80
2023-04-19T02:20:32.800Z,12.10
2023-04-19T02:22:59.108Z,12.50
2023-04-19T02:25:25.544Z,12.20
2023-04-19T02:27:51.861Z,11.60
2023-04-19T02:30:18.256Z,12.30
2023-04-19T02:32:47.517Z,13.20
2023-04-19T02:35:13.867Z,12.00
2023-04-19T02:37:40.311Z,12.40
2023-04-19T02:40:07.206Z,12.20
2023-04-19T02:42:33.762Z,12.30
2023-04-19T02:45:00.183Z,12.10
2023-04-19T02:47:26.770Z,12.90
2023-04-19T02:49:53.203Z,12.70
2023-04-19T02:52:20.459Z,13.30
2023-04-19T02:54:47.661Z,14.10
2023-04-19T02:57:14.077Z,11.90
2023-04-19T02:59:40.530Z,12.80
2023-04-19T03:02:06.976Z,13.00
2023-04-19T03:04:33.842Z,13.30
2023-04-19T03:07:00.416Z,12.80
2023-04-19T03:09:26.765Z,13.20
2023-04-19T03:11:53.086Z,13.10
2023-04-19T03:14:19.574Z,13.90
2023-04-19T03:16:45.976Z,14.90
2023-04-19T03:19:12.439Z,15.70
2023-04-19T03:21:38.826Z,15.30
2023-04-19T03:24:05.535Z,13.80
2023-04-19T03:26:31.845Z,17.90
2023-04-19T03:28:58.166Z,18.10
2023-04-19T03:31:25.253Z,16.70
2023-04-19T03:33:51.619Z,14.80
2023-04-19T03:36:18.109Z,24.70
2023-04-19T03:38:44.390Z,20.00
2023-04-19T03:41:31.004Z,44.10
2023-04-19T03:44:00.537Z,19.70
2023-04-19T03:46:30.956Z,17.70
2023-04-19T03:48:57.489Z,21.50
2023-04-19T03:51:23.819Z,15.10
2023-04-19T03:53:50.314Z,21.00
2023-04-19T03:56:16.837Z,18.60
2023-04-19T03:58:43.175Z,18.90
2023-04-19T04:01:20.956Z,16.80
2023-04-19T04:03:48.015Z,16.70
2023-04-19T04:06:16.057Z,16.50
2023-04-19T04:08:42.767Z,15.70
2023-04-19T04:11:09.176Z,18.20
2023-04-19T04:13:35.651Z,18.80
2023-04-19T04:16:04.173Z,16.20
2023-04-19T04:18:32.206Z,19.40
2023-04-19T04:20:58.523Z,20.60
2023-04-19T04:23:25.482Z,15.00
2023-04-19T04:26:03.662Z,16.20
2023-04-19T04:28:31.676Z,18.10
2023-04-19T04:30:59.798Z,15.20
2023-04-19T04:33:27.893Z,18.60
2023-04-19T04:35:55.882Z,21.30
2023-04-19T04:38:25.104Z,15.80
2023-04-19T04:40:54.253Z,15.20
2023-04-19T04:43:22.210Z,15.90
2023-04-19T04:45:48.641Z,16.80
2023-04-19T04:48:15.498Z,16.90
2023-04-19T04:50:41.910Z,18.00
2023-04-19T04:53:10.098Z,17.50
2023-04-19T04:55:37.404Z,19.30
2023-04-19T04:58:06.762Z,18.20
2023-04-19T05:00:33.898Z,17.90
2023-04-19T05:03:01.787Z,18.40
2023-04-19T05:05:31.542Z,18.80
2023-04-19T05:07:58.172Z,18.70
2023-04-19T05:10:24.818Z,20.70
2023-04-19T05:12:51.219Z,19.10
2023-04-19T05:15:17.765Z,19.20
2023-04-19T05:17:44.286Z,17.80
2023-04-19T05:20:11.454Z,19.30
2023-04-19T05:22:37.935Z,18.30
2023-04-19T05:25:05.241Z,18.60
2023-04-19T05:27:31.681Z,16.70
2023-04-19T05:29:58.125Z,18.80
2023-04-19T05:32:24.573Z,19.20
2023-04-19T05:34:53.326Z,19.40
2023-04-19T05:37:19.587Z,18.90
2023-04-19T05:39:45.892Z,18.80
2023-04-19T05:42:12.275Z,23.00
2023-04-19T05:44:38.561Z,22.30
2023-04-19T05:47:05.097Z,21.00
2023-04-19T05:49:31.564Z,18.60
2023-04-19T05:51:58.065Z,20.50
2023-04-19T05:54:24.537Z,22.40
2023-04-19T05:56:51.014Z,27.80
2023-04-19T05:59:17.426Z,26.00
2023-04-19T06:01:44.035Z,21.50
2023-04-19T06:04:11.009Z,20.40
2023-04-19T06:06:37.750Z,19.60
2023-04-19T06:09:04.455Z,21.90
2023-04-19T06:11:38.830Z,20.20
2023-04-19T06:14:05.919Z,19.60
2023-04-19T06:16:32.496Z,20.60
2023-04-19T06:18:58.905Z,20.30
2023-04-19T06:21:26.478Z,18.90
2023-04-19T06:23:52.972Z,19.40
2023-04-19T06:26:22.276Z,19.60
2023-04-19T06:28:48.745Z,17.60
2023-04-19T06:31:15.270Z,18.20
2023-04-19T06:34:07.483Z,19.40
2023-04-19T06:37:24.753Z,17.40
2023-04-19T06:43:48.810Z,13.70
2023-04-19T06:46:58.653Z,13.80
2023-04-19T06:57:02.580Z,14.00
2023-04-19T08:28:27.909Z,7.90
2023-04-19T08:31:53.992Z,9.30
2023-04-19T08:35:24.098Z,8.80
2023-04-19T08:37:52.550Z,8.30
2023-04-19T08:40:20.110Z,9.00
2023-04-19T08:42:47.096Z,8.10
2023-04-19T08:45:27.530Z,8.40
2023-04-19T08:48:01.282Z,8.20
2023-04-19T08:50:36.071Z,8.20
2023-04-19T08:53:24.137Z,8.40
2023-04-19T08:56:12.257Z,8.60
2023-04-19T09:01:22.934Z,8.70
2023-04-19T09:04:07.398Z,8.60
2023-04-19T09:06:45.337Z,8.20
2023-04-19T09:09:56.020Z,8.90
2023-04-19T09:12:31.433Z,7.90
2023-04-19T09:15:01.865Z,7.90
2023-04-19T09:23:26.881Z,7.50
2023-04-19T09:26:22.166Z,8.40
2023-04-19T09:29:09.493Z,8.40
2023-04-19T09:31:51.478Z,9.20
2023-04-19T09:34:24.918Z,8.70
2023-04-19T09:37:11.067Z,8.20
2023-04-19T09:39:48.087Z,8.20
2023-04-19T09:42:30.748Z,8.10
2023-04-19T09:46:09.872Z,8.20
2023-04-19T09:48:23.956Z,8.60
2023-04-19T09:51:02.278Z,8.50
2023-04-19T09:53:34.865Z,7.90
2023-04-19T09:56:06.469Z,8.10
2023-04-19T09:58:50.842Z,8.40
2023-04-19T10:01:26.088Z,8.50
2023-04-19T10:04:01.159Z,8.30
2023-04-19T10:07:29.288Z,7.20
2023-04-19T10:10:19.985Z,8.80
2023-04-19T10:16:01.705Z,7.90
2023-04-19T10:18:52.669Z,8.30
2023-04-19T10:21:23.956Z,8.50
2023-04-19T10:23:53.054Z,8.50
2023-04-19T10:26:23.387Z,8.20
2023-04-19T10:28:56.762Z,9.50
2023-04-19T10:31:34.427Z,8.50
2023-04-19T10:34:04.456Z,9.10
2023-04-19T10:36:33.002Z,9.30
2023-04-19T10:39:04.353Z,8.60
2023-04-19T10:48:01.188Z,8.40
2023-04-19T10:50:32.811Z,8.40
2023-04-19T10:53:39.386Z,9.00
2023-04-19T10:56:10.692Z,8.30
2023-04-19T10:59:00.905Z,9.00
2023-04-19T11:01:43.585Z,9.40
2023-04-19T11:04:14.398Z,8.50
2023-04-19T11:06:52.360Z,8.30
2023-04-19T11:09:54.323Z,8.00
2023-04-19T11:12:23.537Z,7.60
2023-04-19T11:14:59.828Z,7.80
2023-04-19T11:17:32.669Z,7.40
2023-04-19T11:23:23.240Z,6.20
2023-04-19T11:25:53.997Z,6.90
2023-04-19T11:28:26.600Z,7.00
2023-04-19T11:30:55.681Z,6.80
2023-04-19T11:33:29.089Z,7.80
2023-04-19T11:35:57.887Z,7.00
2023-04-19T11:38:31.632Z,6.30
2023-04-19T11:41:04.510Z,6.70
2023-04-19T11:43:33.980Z,6.70
2023-04-19T11:46:10.485Z,7.50
2023-04-19T11:48:39.493Z,6.30
2023-04-19T11:51:10.976Z,6.30
2023-04-19T11:53:40.239Z,5.90
2023-04-19T11:56:09.730Z,7.00
2023-04-19T11:59:06.538Z,5.80
2023-04-19T12:01:34.542Z,5.80
2023-04-19T12:04:05.170Z,6.30
2023-04-19T12:06:33.240Z,5.50
2023-04-19T12:09:08.763Z,6.20
2023-04-19T12:11:50.395Z,5.50
2023-04-19T12:14:22.292Z,5.70
2023-04-19T12:17:14.710Z,5.50
2023-04-19T12:19:44.867Z,5.40
2023-04-19T12:22:28.303Z,5.40
2023-04-19T12:25:06.078Z,10.20
2023-04-19T12:27:36.371Z,8.20
2023-04-19T12:30:04.854Z,5.40
2023-04-19T12:32:34.080Z,5.80
2023-04-19T12:35:04.826Z,4.70
2023-04-19T12:40:36.799Z,5.30
2023-04-19T12:43:08.828Z,5.20
2023-04-19T12:45:36.774Z,5.50
2023-04-19T12:48:04.788Z,6.30
2023-04-19T12:50:32.789Z,6.00
2023-04-19T12:53:09.314Z,5.40
2023-04-19T12:55:37.211Z,5.30
2023-04-19T12:58:07.213Z,5.40
2023-04-19T13:00:35.293Z,4.70
2023-04-19T13:03:03.700Z,5.90
2023-04-19T13:05:31.715Z,5.00
2023-04-19T13:08:00.289Z,5.50
2023-04-19T13:10:28.227Z,7.00
2023-04-19T13:13:07.378Z,4.80
2023-04-19T13:16:22.226Z,5.80
2023-04-19T13:19:05.051Z,5.10
2023-04-19T13:26:31.187Z,5.50
2023-04-19T13:29:17.524Z,5.00
2023-04-19T13:31:56.705Z,5.60
2023-04-19T13:34:43.024Z,6.30
2023-04-19T13:37:15.801Z,6.60
2023-04-19T13:39:43.850Z,5.30
2023-04-19T13:42:14.340Z,5.30
2023-04-19T13:44:42.375Z,5.90
2023-04-19T13:47:12.622Z,8.50
2023-04-19T13:49:41.508Z,5.70
2023-04-19T13:52:13.365Z,6.90
2023-04-19T13:54:41.357Z,6.10
2023-04-19T13:57:09.846Z,6.10
2023-04-19T13:59:37.882Z,6.40
2023-04-19T14:02:06.346Z,6.10
2023-04-19T14:04:34.299Z,6.50
2023-04-19T14:07:02.309Z,6.10
2023-04-19T14:09:30.614Z,6.10
2023-04-19T14:12:03.741Z,7.00
2023-04-19T14:14:35.383Z,6.20
2023-04-19T14:17:03.682Z,6.60
2023-04-19T14:19:32.086Z,8.40
2023-04-19T14:24:07.938Z,5.10
2023-04-19T14:26:35.964Z,7.90
2023-04-19T14:29:05.619Z,6.40
2023-04-19T14:31:32.884Z,5.80
2023-04-19T14:34:00.692Z,6.10
2023-04-19T14:36:30.854Z,5.80
2023-04-19T14:38:57.384Z,5.30
2023-04-19T14:41:31.334Z,5.40
2023-04-19T14:43:58.162Z,5.20
2023-04-19T14:48:21.404Z,5.40
2023-04-19T14:51:44.789Z,5.70
2023-04-19T14:55:04.577Z,5.40
2023-04-19T14:57:33.196Z,9.00
2023-04-19T15:00:02.248Z,7.60
2023-04-19T15:02:30.539Z,7.50
2023-04-19T15:05:02.131Z,6.60
2023-04-19T15:07:36.711Z,6.20
2023-04-19T15:10:07.290Z,9.90
2023-04-19T15:12:35.158Z,7.60
2023-04-19T15:15:04.431Z,5.90
2023-04-19T15:17:33.355Z,5.20
2023-04-19T15:20:03.884Z,5.30
2023-04-19T15:23:08.617Z,6.40
2023-04-19T15:26:03.709Z,3.80
2023-04-19T15:28:36.245Z,4.80
2023-04-19T15:31:06.846Z,4.10
2023-04-19T15:33:37.252Z,4.70
2023-04-19T15:47:13.814Z,6.30
2023-04-19T15:49:41.956Z,5.50
2023-04-19T15:52:12.285Z,7.30
2023-04-19T15:55:08.610Z,6.40
2023-04-19T15:57:39.291Z,6.40
2023-04-19T16:02:46.099Z,7.30
2023-04-19T16:05:16.307Z,7.70
2023-04-19T16:07:46.682Z,6.80
2023-04-19T16:10:41.196Z,6.90
2023-04-19T16:13:09.277Z,7.30
2023-04-19T16:16:34.824Z,5.80
2023-04-19T16:20:13.313Z,6.90
2023-04-19T16:23:54.053Z,6.40
2023-04-19T16:27:34.730Z,7.00
2023-04-19T16:42:04.282Z,10.20
2023-04-19T16:45:17.027Z,7.50
2023-04-19T16:48:43.880Z,8.40
2023-04-19T16:52:10.928Z,8.70
2023-04-19T16:55:43.041Z,10.10
2023-04-19T16:59:22.034Z,12.00
2023-04-19T17:01:50.666Z,11.10
2023-04-19T17:04:19.255Z,12.60
2023-04-19T17:06:54.965Z,13.80
2023-04-19T17:09:26.755Z,13.10
2023-04-19T17:11:57.450Z,13.30
2023-04-19T17:14:25.691Z,12.60
2023-04-19T17:16:53.627Z,13.00
2023-04-19T17:19:21.449Z,14.50
2023-04-19T17:21:49.401Z,13.60
2023-04-19T17:24:18.145Z,13.70
2023-04-19T17:26:46.158Z,14.10
2023-04-19T17:29:14.001Z,14.20
2023-04-19T17:31:42.099Z,14.60
2023-04-19T17:34:10.404Z,14.00
2023-04-19T17:36:38.284Z,15.80
2023-04-19T17:39:07.868Z,15.70
2023-04-19T17:41:35.671Z,17.10
2023-04-19T17:44:03.591Z,17.50
2023-04-19T17:46:31.590Z,18.40
2023-04-19T17:49:06.856Z,19.30
2023-04-19T17:51:34.775Z,18.30
2023-04-19T17:54:06.198Z,18.90
2023-04-19T17:56:33.995Z,20.70
2023-04-19T17:59:03.954Z,19.70
2023-04-19T18:01:37.245Z,20.00
2023-04-19T18:04:06.678Z,18.80
2023-04-19T18:06:34.705Z,21.80
2023-04-19T18:09:03.170Z,20.60
2023-04-19T18:11:30.933Z,20.30
2023-04-19T18:13:59.290Z,20.40
2023-04-19T18:16:30.365Z,22.40
2023-04-19T18:18:59.366Z,23.80
2023-04-19T18:21:27.301Z,22.80
2023-04-19T18:23:57.652Z,22.30
2023-04-19T18:26:42.492Z,23.70
2023-04-19T18:29:12.508Z,22.70
2023-04-19T18:31:40.556Z,22.30
2023-04-19T18:34:11.198Z,22.70
2023-04-19T18:36:43.025Z,23.30
2023-04-19T18:39:11.280Z,21.90
2023-04-19T18:41:39.520Z,22.80
2023-04-19T18:44:34.785Z,22.60
2023-04-19T18:53:30.874Z,19.00
2023-04-19T18:55:58.769Z,19.60
2023-04-19T18:58:28.408Z,20.30
2023-04-19T19:00:56.990Z,19.60
2023-04-19T19:05:55.851Z,17.30
2023-04-19T19:08:24.052Z,18.30
2023-04-19T19:13:22.692Z,14.80
2023-04-19T19:15:50.561Z,13.90
2023-04-19T19:18:18.446Z,12.50
2023-04-19T19:20:46.372Z,13.00
2023-04-19T19:23:14.895Z,15.10
2023-04-19T19:25:43.078Z,11.20
2023-04-19T19:28:11.334Z,10.10
2023-04-19T19:30:42.783Z,10.30
2023-04-19T19:33:11.507Z,9.30
2023-04-19T19:35:39.975Z,9.40
2023-04-19T19:38:08.350Z,8.20
2023-04-19T19:40:40.850Z,7.50
2023-04-19T19:43:24.163Z,8.00
2023-04-19T19:45:51.983Z,9.60
2023-04-19T19:48:19.890Z,8.50
2023-04-19T19:51:17.404Z,8.40
2023-04-19T19:53:37.088Z,8.00
2023-04-19T19:56:12.894Z,7.60
2023-04-19T19:58:50.222Z,8.50
2023-04-19T20:01:22.503Z,9.10
2023-04-19T20:03:51.236Z,8.60
2023-04-19T20:08:57.427Z,9.00
2023-04-19T20:11:25.680Z,8.60
2023-04-19T20:13:53.415Z,8.90
2023-04-19T20:16:21.608Z,9.30
2023-04-19T20:18:49.485Z,10.50
2023-04-19T20:21:19.713Z,8.70
2023-04-19T20:23:50.111Z,9.60
2023-04-19T20:26:18.336Z,10.20
2023-04-19T20:28:46.105Z,10.10
2023-04-19T20:31:14.514Z,11.90
2023-04-19T20:33:42.268Z,8.40
2023-04-19T20:36:10.210Z,10.10
2023-04-19T20:38:40.308Z,13.30
2023-04-19T20:41:09.141Z,10.90
2023-04-19T20:43:39.396Z,8.60
2023-04-19T20:46:08.681Z,9.10
2023-04-19T20:48:36.987Z,10.30
2023-04-19T20:51:08.827Z,10.90
2023-04-19T20:53:36.755Z,10.10
2023-04-19T21:00:45.104Z,10.50
2023-04-19T21:03:13.605Z,10.40
2023-04-19T21:05:41.695Z,11.60
2023-04-19T21:08:13.401Z,11.30
2023-04-19T21:10:41.397Z,11.40
2023-04-19T21:13:09.820Z,11.70
2023-04-19T21:15:37.886Z,9.50
2023-04-19T21:18:07.081Z,11.90
2023-04-19T21:20:35.791Z,12.80
2023-04-19T21:23:04.337Z,10.20
2023-04-19T21:25:32.342Z,14.20
2023-04-19T21:28:00.052Z,12.00
2023-04-19T21:30:27.853Z,13.30
2023-04-19T21:32:55.852Z,12.80
2023-04-19T21:39:43.807Z,15.80
2023-04-19T21:42:11.561Z,18.20
2023-04-19T21:44:39.414Z,15.60
2023-04-19T21:47:07.911Z,15.90
2023-04-19T21:49:36.578Z,15.80
2023-04-19T21:52:05.580Z,14.60
2023-04-19T21:54:34.760Z,17.00
2023-04-19T21:57:03.248Z,15.60
2023-04-19T21:59:31.153Z,16.70
2023-04-19T22:01:59.129Z,15.60
2023-04-19T22:04:31.072Z,15.80
2023-04-19T22:07:03.057Z,14.20
2023-04-19T22:09:31.177Z,14.20
2023-04-19T22:12:00.974Z,13.20
2023-04-19T22:18:49.797Z,13.90
2023-04-19T22:21:17.740Z,14.00
2023-04-19T22:23:45.988Z,16.10
2023-04-19T22:26:13.729Z,16.40
2023-04-19T22:28:41.536Z,17.80
2023-04-19T22:31:09.357Z,17.10
2023-04-19T22:33:37.283Z,15.50
2023-04-19T22:36:06.900Z,17.70
2023-04-19T22:38:34.597Z,17.60
2023-04-19T22:41:02.690Z,18.00
2023-04-19T22:43:30.551Z,18.50
2023-04-19T22:45:58.370Z,17.80
2023-04-19T22:48:28.049Z,18.00
2023-04-19T22:50:56.854Z,17.40
2023-04-19T22:53:24.572Z,16.40
2023-04-19T22:55:52.671Z,15.40
2023-04-19T22:58:20.469Z,16.80
2023-04-19T23:00:48.287Z,18.30
2023-04-19T23:03:16.689Z,17.40
2023-04-19T23:05:44.627Z,15.10
2023-04-19T23:08:12.922Z,17.50
2023-04-19T23:10:42.389Z,20.60
2023-04-19T23:13:10.608Z,15.30
2023-04-19T23:15:39.369Z,16.30
2023-04-19T23:18:07.484Z,16.70
2023-04-19T23:20:35.793Z,15.90
2023-04-19T23:23:03.633Z,15.80
2023-04-19T23:25:31.531Z,15.40
2023-04-19T23:28:00.540Z,15.40
2023-04-19T23:30:29.613Z,16.70
2023-04-19T23:32:58.668Z,16.30
2023-04-19T23:35:26.525Z,14.30
2023-04-19T23:37:54.384Z,14.90
2023-04-19T23:40:24.371Z,13.60
2023-04-19T23:42:52.114Z,15.50
2023-04-19T23:45:19.973Z,13.50
2023-04-19T23:47:47.760Z,15.10
2023-04-19T23:50:16.042Z,13.10
2023-04-19T23:52:43.731Z,15.70
2023-04-19T23:55:12.616Z,15.90
2023-04-19T23:57:40.618Z,14.90
